sensor_id;sensor_type;location;lat;lon;timestamp;temperature;humidity
30893;DHT22;17595;50.884;4.346;2022-08-03T00:01:15;24.70;99.90
30893;DHT22;17595;50.884;4.346;2022-08-03T00:03:41;24.60;99.90
30893;DHT22;17595;50.884;4.346;2022-08-03T00:06:07;24.70;99.90
30893;DHT22;17595;50.884;4.346;2022-08-03T00:08:33;24.60;99.90
30893;DHT22;17595;50.884;4.346;2022-08-03T00:10:59;24.70;99.90
30893;DHT22;17595;50.884;4.346;2022-08-03T00:13:24;24.60;99.90
30893;DHT22;17595;50.884;4.346;2022-08-03T00:15:50;24.60;99.90
30893;DHT22;17595;50.884;4.346;2022-08-03T00:18:16;24.50;99.90
30893;DHT22;17595;50.884;4.346;2022-08-03T00:20:42;24.50;99.90
30893;DHT22;17595;50.884;4.346;2022-08-03T00:23:08;24.60;99.90
30893;DHT22;17595;50.884;4.346;2022-08-03T00:25:34;24.50;99.90
30893;DHT22;17595;50.884;4.346;2022-08-03T00:28:01;24.60;99.90
30893;DHT22;17595;50.884;4.346;2022-08-03T00:30:27;24.50;99.90
30893;DHT22;17595;50.884;4.346;2022-08-03T00:32:52;24.60;99.90
30893;DHT22;17595;50.884;4.346;2022-08-03T00:35:18;24.50;99.90
30893;DHT22;17595;50.884;4.346;2022-08-03T00:37:44;24.50;99.90
30893;DHT22;17595;50.884;4.346;2022-08-03T00:40:14;24.50;99.90
30893;DHT22;17595;50.884;4.346;2022-08-03T00:42:54;24.50;99.90
30893;DHT22;17595;50.884;4.346;2022-08-03T00:45:23;24.40;99.90
30893;DHT22;17595;50.884;4.346;2022-08-03T00:47:50;24.40;99.90
30893;DHT22;17595;50.884;4.346;2022-08-03T00:50:16;24.40;99.90
30893;DHT22;17595;50.884;4.346;2022-08-03T00:52:42;24.30;99.90
30893;DHT22;17595;50.884;4.346;2022-08-03T00:55:09;24.30;99.90
30893;DHT22;17595;50.884;4.346;2022-08-03T00:57:35;24.30;99.90
30893;DHT22;17595;50.884;4.346;2022-08-03T01:00:03;24.30;99.90
30893;DHT22;17595;50.884;4.346;2022-08-03T01:02:29;24.30;99.90
30893;DHT22;17595;50.884;4.346;2022-08-03T01:04:55;24.30;99.90
30893;DHT22;17595;50.884;4.346;2022-08-03T01:07:47;24.30;99.90
30893;DHT22;17595;50.884;4.346;2022-08-03T01:10:25;24.40;99.90
30893;DHT22;17595;50.884;4.346;2022-08-03T01:13:02;24.30;99.90
30893;DHT22;17595;50.884;4.346;2022-08-03T01:15:43;24.30;99.90
30893;DHT22;17595;50.884;4.346;2022-08-03T01:18:17;24.30;99.90
30893;DHT22;17595;50.884;4.346;2022-08-03T01:20:48;24.20;99.90
30893;DHT22;17595;50.884;4.346;2022-08-03T01:31:59;24.20;99.90
30893;DHT22;17595;50.884;4.346;2022-08-03T01:34:30;24.20;99.90
30893;DHT22;17595;50.884;4.346;2022-08-03T01:36:58;24.20;99.90
30893;DHT22;17595;50.884;4.346;2022-08-03T01:39:28;24.10;99.90
30893;DHT22;17595;50.884;4.346;2022-08-03T01:41:58;24.10;99.90
30893;DHT22;17595;50.884;4.346;2022-08-03T01:44:29;24.00;99.90
30893;DHT22;17595;50.884;4.346;2022-08-03T01:46:59;23.90;99.90
30893;DHT22;17595;50.884;4.346;2022-08-03T01:49:28;23.80;99.90
30893;DHT22;17595;50.884;4.346;2022-08-03T01:51:54;23.80;99.90
30893;DHT22;17595;50.884;4.346;2022-08-03T01:54:22;23.80;99.90
30893;DHT22;17595;50.884;4.346;2022-08-03T01:56:50;23.80;99.90
30893;DHT22;17595;50.884;4.346;2022-08-03T01:59:18;23.90;99.90
30893;DHT22;17595;50.884;4.346;2022-08-03T02:01:45;23.90;99.90
30893;DHT22;17595;50.884;4.346;2022-08-03T02:04:13;23.80;99.90
30893;DHT22;17595;50.884;4.346;2022-08-03T02:06:39;23.80;99.90
30893;DHT22;17595;50.884;4.346;2022-08-03T02:09:06;23.80;99.90
30893;DHT22;17595;50.884;4.346;2022-08-03T02:11:34;23.80;99.90
30893;DHT22;17595;50.884;4.346;2022-08-03T02:14:02;23.80;99.90
30893;DHT22;17595;50.884;4.346;2022-08-03T02:16:30;23.80;99.90
30893;DHT22;17595;50.884;4.346;2022-08-03T02:18:58;23.70;99.90
30893;DHT22;17595;50.884;4.346;2022-08-03T02:21:27;23.70;99.90
30893;DHT22;17595;50.884;4.346;2022-08-03T02:23:53;23.70;99.90
30893;DHT22;17595;50.884;4.346;2022-08-03T02:26:19;23.70;99.90
30893;DHT22;17595;50.884;4.346;2022-08-03T02:28:47;23.60;99.90
30893;DHT22;17595;50.884;4.346;2022-08-03T02:31:22;23.60;99.90
30893;DHT22;17595;50.884;4.346;2022-08-03T02:33:52;23.70;99.90
30893;DHT22;17595;50.884;4.346;2022-08-03T02:36:24;23.70;99.90
30893;DHT22;17595;50.884;4.346;2022-08-03T02:38:54;23.60;99.90
30893;DHT22;17595;50.884;4.346;2022-08-03T02:41:29;23.60;99.90
30893;DHT22;17595;50.884;4.346;2022-08-03T02:43:56;23.60;99.90
30893;DHT22;17595;50.884;4.346;2022-08-03T02:46:30;23.60;99.90
30893;DHT22;17595;50.884;4.346;2022-08-03T02:48:58;23.60;99.90
30893;DHT22;17595;50.884;4.346;2022-08-03T02:51:27;23.60;99.90
30893;DHT22;17595;50.884;4.346;2022-08-03T02:53:55;23.50;99.90
30893;DHT22;17595;50.884;4.346;2022-08-03T02:56:23;23.50;99.90
30893;DHT22;17595;50.884;4.346;2022-08-03T02:58:50;23.50;99.90
30893;DHT22;17595;50.884;4.346;2022-08-03T03:01:19;23.40;99.90
30893;DHT22;17595;50.884;4.346;2022-08-03T03:03:46;23.50;99.90
30893;DHT22;17595;50.884;4.346;2022-08-03T03:06:15;23.50;99.90
30893;DHT22;17595;50.884;4.346;2022-08-03T03:08:41;23.50;99.90
30893;DHT22;17595;50.884;4.346;2022-08-03T03:11:08;23.50;99.90
30893;DHT22;17595;50.884;4.346;2022-08-03T03:13:35;23.40;99.90
30893;DHT22;17595;50.884;4.346;2022-08-03T03:16:03;23.40;99.90
30893;DHT22;17595;50.884;4.346;2022-08-03T03:18:32;23.40;99.90
30893;DHT22;17595;50.884;4.346;2022-08-03T03:21:00;23.40;99.90
30893;DHT22;17595;50.884;4.346;2022-08-03T03:23:27;23.30;99.90
30893;DHT22;17595;50.884;4.346;2022-08-03T03:25:55;23.30;99.90
30893;DHT22;17595;50.884;4.346;2022-08-03T03:28:23;23.20;99.90
30893;DHT22;17595;50.884;4.346;2022-08-03T03:30:49;23.10;99.90
30893;DHT22;17595;50.884;4.346;2022-08-03T03:33:15;23.10;99.90
30893;DHT22;17595;50.884;4.346;2022-08-03T03:35:41;23.10;99.90
30893;DHT22;17595;50.884;4.346;2022-08-03T03:38:09;23.10;99.90
30893;DHT22;17595;50.884;4.346;2022-08-03T03:40:35;23.10;99.90
30893;DHT22;17595;50.884;4.346;2022-08-03T03:43:05;23.10;99.90
30893;DHT22;17595;50.884;4.346;2022-08-03T03:45:34;23.10;99.90
30893;DHT22;17595;50.884;4.346;2022-08-03T03:48:01;23.10;99.90
30893;DHT22;17595;50.884;4.346;2022-08-03T03:50:30;23.10;99.90
30893;DHT22;17595;50.884;4.346;2022-08-03T03:52:56;23.10;99.90
30893;DHT22;17595;50.884;4.346;2022-08-03T03:55:22;23.10;99.90
30893;DHT22;17595;50.884;4.346;2022-08-03T03:57:48;23.10;99.90
30893;DHT22;17595;50.884;4.346;2022-08-03T04:00:15;23.10;99.90
30893;DHT22;17595;50.884;4.346;2022-08-03T04:02:41;23.10;99.90
30893;DHT22;17595;50.884;4.346;2022-08-03T04:05:07;23.10;99.90
30893;DHT22;17595;50.884;4.346;2022-08-03T04:08:00;23.00;99.90
30893;DHT22;17595;50.884;4.346;2022-08-03T04:16:14;23.00;99.90
30893;DHT22;17595;50.884;4.346;2022-08-03T04:18:41;23.00;99.90
30893;DHT22;17595;50.884;4.346;2022-08-03T04:21:10;23.00;99.90
30893;DHT22;17595;50.884;4.346;2022-08-03T04:23:39;23.00;99.90
30893;DHT22;17595;50.884;4.346;2022-08-03T04:26:08;22.90;99.90
30893;DHT22;17595;50.884;4.346;2022-08-03T04:28:37;22.90;99.90
30893;DHT22;17595;50.884;4.346;2022-08-03T04:31:04;22.90;99.90
30893;DHT22;17595;50.884;4.346;2022-08-03T04:33:33;22.90;99.90
30893;DHT22;17595;50.884;4.346;2022-08-03T04:36:01;22.80;99.90
30893;DHT22;17595;50.884;4.346;2022-08-03T04:38:35;22.80;99.90
30893;DHT22;17595;50.884;4.346;2022-08-03T04:41:01;22.80;99.90
30893;DHT22;17595;50.884;4.346;2022-08-03T04:43:28;22.80;99.90
30893;DHT22;17595;50.884;4.346;2022-08-03T04:45:56;22.90;99.90
30893;DHT22;17595;50.884;4.346;2022-08-03T04:48:23;22.80;99.90
30893;DHT22;17595;50.884;4.346;2022-08-03T04:50:49;22.80;99.90
30893;DHT22;17595;50.884;4.346;2022-08-03T04:53:15;22.80;99.90
30893;DHT22;17595;50.884;4.346;2022-08-03T04:55:41;22.80;99.90
30893;DHT22;17595;50.884;4.346;2022-08-03T04:58:07;22.80;99.90
30893;DHT22;17595;50.884;4.346;2022-08-03T05:00:33;22.80;99.90
30893;DHT22;17595;50.884;4.346;2022-08-03T05:02:59;22.80;99.90
30893;DHT22;17595;50.884;4.346;2022-08-03T05:05:25;22.80;99.90
30893;DHT22;17595;50.884;4.346;2022-08-03T05:07:50;22.80;99.90
30893;DHT22;17595;50.884;4.346;2022-08-03T05:10:16;22.90;99.90
30893;DHT22;17595;50.884;4.346;2022-08-03T05:12:44;22.90;99.90
30893;DHT22;17595;50.884;4.346;2022-08-03T05:15:10;22.90;99.90
30893;DHT22;17595;50.884;4.346;2022-08-03T05:17:36;22.90;99.90
30893;DHT22;17595;50.884;4.346;2022-08-03T05:20:02;22.90;99.90
30893;DHT22;17595;50.884;4.346;2022-08-03T05:22:31;22.90;99.90
30893;DHT22;17595;50.884;4.346;2022-08-03T05:24:56;23.00;99.90
30893;DHT22;17595;50.884;4.346;2022-08-03T05:27:22;23.00;99.90
30893;DHT22;17595;50.884;4.346;2022-08-03T05:29:49;23.00;99.90
30893;DHT22;17595;50.884;4.346;2022-08-03T05:32:15;23.00;99.90
30893;DHT22;17595;50.884;4.346;2022-08-03T05:34:42;23.00;99.90
30893;DHT22;17595;50.884;4.346;2022-08-03T05:37:07;23.00;99.90
30893;DHT22;17595;50.884;4.346;2022-08-03T05:39:33;23.00;99.90
30893;DHT22;17595;50.884;4.346;2022-08-03T05:41:59;23.00;99.90
30893;DHT22;17595;50.884;4.346;2022-08-03T05:44:25;23.00;99.90
30893;DHT22;17595;50.884;4.346;2022-08-03T05:46:51;23.10;99.90
30893;DHT22;17595;50.884;4.346;2022-08-03T05:49:17;23.10;99.90
30893;DHT22;17595;50.884;4.346;2022-08-03T05:51:43;23.10;99.90
30893;DHT22;17595;50.884;4.346;2022-08-03T05:54:09;23.10;99.90
30893;DHT22;17595;50.884;4.346;2022-08-03T05:56:34;23.20;99.90
30893;DHT22;17595;50.884;4.346;2022-08-03T05:59:00;23.20;99.90
30893;DHT22;17595;50.884;4.346;2022-08-03T06:01:25;23.10;99.90
30893;DHT22;17595;50.884;4.346;2022-08-03T06:03:51;23.20;99.90
30893;DHT22;17595;50.884;4.346;2022-08-03T06:06:17;23.30;99.90
30893;DHT22;17595;50.884;4.346;2022-08-03T06:08:44;23.30;99.90
30893;DHT22;17595;50.884;4.346;2022-08-03T06:11:11;23.20;99.90
30893;DHT22;17595;50.884;4.346;2022-08-03T06:13:37;23.20;99.90
30893;DHT22;17595;50.884;4.346;2022-08-03T06:16:03;23.20;99.90
30893;DHT22;17595;50.884;4.346;2022-08-03T06:18:28;23.20;99.90
30893;DHT22;17595;50.884;4.346;2022-08-03T06:20:54;23.30;99.90
30893;DHT22;17595;50.884;4.346;2022-08-03T06:23:20;23.40;99.90
30893;DHT22;17595;50.884;4.346;2022-08-03T06:25:46;23.50;99.90
30893;DHT22;17595;50.884;4.346;2022-08-03T06:28:12;23.40;99.90
30893;DHT22;17595;50.884;4.346;2022-08-03T06:30:39;23.30;99.90
30893;DHT22;17595;50.884;4.346;2022-08-03T06:33:05;23.40;99.90
30893;DHT22;17595;50.884;4.346;2022-08-03T06:35:30;23.40;99.90
30893;DHT22;17595;50.884;4.346;2022-08-03T06:37:56;23.50;99.90
30893;DHT22;17595;50.884;4.346;2022-08-03T06:40:22;23.40;99.90
30893;DHT22;17595;50.884;4.346;2022-08-03T06:43:00;23.50;99.90
30893;DHT22;17595;50.884;4.346;2022-08-03T06:45:27;23.50;99.90
30893;DHT22;17595;50.884;4.346;2022-08-03T06:50:29;23.30;99.90
30893;DHT22;17595;50.884;4.346;2022-08-03T06:52:55;23.50;99.90
30893;DHT22;17595;50.884;4.346;2022-08-03T06:55:20;23.70;99.90
30893;DHT22;17595;50.884;4.346;2022-08-03T06:57:46;23.70;99.90
30893;DHT22;17595;50.884;4.346;2022-08-03T07:00:12;23.70;99.90
30893;DHT22;17595;50.884;4.346;2022-08-03T07:02:38;23.80;99.90
30893;DHT22;17595;50.884;4.346;2022-08-03T07:05:08;23.80;99.90
30893;DHT22;17595;50.884;4.346;2022-08-03T07:07:33;24.00;99.90
30893;DHT22;17595;50.884;4.346;2022-08-03T07:09:59;23.80;99.90
30893;DHT22;17595;50.884;4.346;2022-08-03T07:12:27;23.80;99.90
30893;DHT22;17595;50.884;4.346;2022-08-03T07:14:53;24.10;99.90
30893;DHT22;17595;50.884;4.346;2022-08-03T07:17:19;24.30;99.90
30893;DHT22;17595;50.884;4.346;2022-08-03T07:19:45;24.20;99.90
30893;DHT22;17595;50.884;4.346;2022-08-03T07:22:10;24.20;99.90
30893;DHT22;17595;50.884;4.346;2022-08-03T07:24:36;24.10;99.90
30893;DHT22;17595;50.884;4.346;2022-08-03T07:27:02;24.10;99.90
30893;DHT22;17595;50.884;4.346;2022-08-03T07:29:28;24.00;99.90
30893;DHT22;17595;50.884;4.346;2022-08-03T07:31:53;24.10;99.90
30893;DHT22;17595;50.884;4.346;2022-08-03T07:34:19;24.10;99.90
30893;DHT22;17595;50.884;4.346;2022-08-03T07:36:45;24.20;99.90
30893;DHT22;17595;50.884;4.346;2022-08-03T07:39:12;24.20;99.90
30893;DHT22;17595;50.884;4.346;2022-08-03T07:41:37;24.20;99.90
30893;DHT22;17595;50.884;4.346;2022-08-03T07:44:03;24.10;99.90
30893;DHT22;17595;50.884;4.346;2022-08-03T07:46:29;24.10;99.90
30893;DHT22;17595;50.884;4.346;2022-08-03T07:48:54;24.10;99.90
30893;DHT22;17595;50.884;4.346;2022-08-03T07:51:20;24.00;99.90
30893;DHT22;17595;50.884;4.346;2022-08-03T07:53:46;24.00;99.90
30893;DHT22;17595;50.884;4.346;2022-08-03T07:56:11;24.10;99.90
30893;DHT22;17595;50.884;4.346;2022-08-03T07:58:37;24.30;99.90
30893;DHT22;17595;50.884;4.346;2022-08-03T08:01:02;24.50;99.90
30893;DHT22;17595;50.884;4.346;2022-08-03T08:03:29;24.50;99.90
30893;DHT22;17595;50.884;4.346;2022-08-03T08:05:55;24.40;99.90
30893;DHT22;17595;50.884;4.346;2022-08-03T08:08:20;24.50;99.90
30893;DHT22;17595;50.884;4.346;2022-08-03T08:10:47;24.50;99.90
30893;DHT22;17595;50.884;4.346;2022-08-03T08:13:12;24.60;99.90
30893;DHT22;17595;50.884;4.346;2022-08-03T08:15:39;24.50;99.90
30893;DHT22;17595;50.884;4.346;2022-08-03T08:18:05;24.60;99.90
30893;DHT22;17595;50.884;4.346;2022-08-03T08:20:35;24.70;99.90
30893;DHT22;17595;50.884;4.346;2022-08-03T08:23:06;24.80;99.90
30893;DHT22;17595;50.884;4.346;2022-08-03T08:25:32;24.80;99.90
30893;DHT22;17595;50.884;4.346;2022-08-03T08:27:59;25.00;99.90
30893;DHT22;17595;50.884;4.346;2022-08-03T08:30:29;25.00;99.90
30893;DHT22;17595;50.884;4.346;2022-08-03T08:32:55;25.00;99.90
30893;DHT22;17595;50.884;4.346;2022-08-03T08:35:22;25.10;99.90
30893;DHT22;17595;50.884;4.346;2022-08-03T08:37:48;25.20;99.90
30893;DHT22;17595;50.884;4.346;2022-08-03T08:40:13;25.10;99.90
30893;DHT22;17595;50.884;4.346;2022-08-03T08:42:40;25.10;99.90
30893;DHT22;17595;50.884;4.346;2022-08-03T08:45:07;25.20;99.90
30893;DHT22;17595;50.884;4.346;2022-08-03T08:47:36;25.20;99.90
30893;DHT22;17595;50.884;4.346;2022-08-03T08:50:03;25.30;99.90
30893;DHT22;17595;50.884;4.346;2022-08-03T08:52:29;25.40;99.90
30893;DHT22;17595;50.884;4.346;2022-08-03T08:55:01;25.40;99.90
30893;DHT22;17595;50.884;4.346;2022-08-03T08:57:43;25.50;99.90
30893;DHT22;17595;50.884;4.346;2022-08-03T09:00:10;25.60;99.90
30893;DHT22;17595;50.884;4.346;2022-08-03T09:02:41;25.60;99.90
30893;DHT22;17595;50.884;4.346;2022-08-03T09:05:13;25.40;99.90
30893;DHT22;17595;50.884;4.346;2022-08-03T09:07:40;25.40;99.90
30893;DHT22;17595;50.884;4.346;2022-08-03T09:10:07;25.40;99.90
30893;DHT22;17595;50.884;4.346;2022-08-03T09:12:52;25.40;99.90
30893;DHT22;17595;50.884;4.346;2022-08-03T09:15:26;25.50;99.90
30893;DHT22;17595;50.884;4.346;2022-08-03T09:17:55;25.60;99.90
30893;DHT22;17595;50.884;4.346;2022-08-03T09:20:23;25.60;99.90
30893;DHT22;17595;50.884;4.346;2022-08-03T09:22:57;25.60;99.90
30893;DHT22;17595;50.884;4.346;2022-08-03T09:25:38;25.60;99.90
30893;DHT22;17595;50.884;4.346;2022-08-03T09:30:40;25.70;99.90
30893;DHT22;17595;50.884;4.346;2022-08-03T09:33:08;25.70;99.90
30893;DHT22;17595;50.884;4.346;2022-08-03T09:35:47;25.80;99.90
30893;DHT22;17595;50.884;4.346;2022-08-03T09:38:19;25.80;99.90
30893;DHT22;17595;50.884;4.346;2022-08-03T09:40:48;25.90;99.90
30893;DHT22;17595;50.884;4.346;2022-08-03T09:43:15;26.00;99.90
30893;DHT22;17595;50.884;4.346;2022-08-03T09:45:41;26.00;99.90
30893;DHT22;17595;50.884;4.346;2022-08-03T09:48:29;26.10;99.90
30893;DHT22;17595;50.884;4.346;2022-08-03T09:50:57;26.00;99.90
30893;DHT22;17595;50.884;4.346;2022-08-03T09:53:23;26.10;99.90
30893;DHT22;17595;50.884;4.346;2022-08-03T09:55:50;26.10;99.90
30893;DHT22;17595;50.884;4.346;2022-08-03T09:58:17;26.10;99.90
30893;DHT22;17595;50.884;4.346;2022-08-03T10:01:02;26.30;99.90
30893;DHT22;17595;50.884;4.346;2022-08-03T10:03:31;26.30;99.90
30893;DHT22;17595;50.884;4.346;2022-08-03T10:05:57;26.30;99.90
30893;DHT22;17595;50.884;4.346;2022-08-03T10:08:23;26.40;99.90
30893;DHT22;17595;50.884;4.346;2022-08-03T10:10:51;26.50;99.90
30893;DHT22;17595;50.884;4.346;2022-08-03T10:13:21;26.50;99.90
30893;DHT22;17595;50.884;4.346;2022-08-03T10:15:47;26.50;99.90
30893;DHT22;17595;50.884;4.346;2022-08-03T10:18:13;26.40;99.90
30893;DHT22;17595;50.884;4.346;2022-08-03T10:20:48;26.40;99.90
30893;DHT22;17595;50.884;4.346;2022-08-03T10:23:16;26.40;99.90
30893;DHT22;17595;50.884;4.346;2022-08-03T10:25:43;26.50;99.90
30893;DHT22;17595;50.884;4.346;2022-08-03T10:28:13;26.60;99.90
30893;DHT22;17595;50.884;4.346;2022-08-03T10:30:40;26.70;99.90
30893;DHT22;17595;50.884;4.346;2022-08-03T10:33:18;26.70;99.90
30893;DHT22;17595;50.884;4.346;2022-08-03T10:35:45;26.80;99.90
30893;DHT22;17595;50.884;4.346;2022-08-03T10:38:18;26.80;99.90
30893;DHT22;17595;50.884;4.346;2022-08-03T10:40:44;26.80;99.90
30893;DHT22;17595;50.884;4.346;2022-08-03T10:43:18;26.90;99.90
30893;DHT22;17595;50.884;4.346;2022-08-03T10:45:45;26.90;99.90
30893;DHT22;17595;50.884;4.346;2022-08-03T10:48:11;26.90;99.90
30893;DHT22;17595;50.884;4.346;2022-08-03T10:50:37;27.00;99.90
30893;DHT22;17595;50.884;4.346;2022-08-03T10:53:05;26.90;99.90
30893;DHT22;17595;50.884;4.346;2022-08-03T10:55:38;26.90;99.90
30893;DHT22;17595;50.884;4.346;2022-08-03T10:58:47;27.00;99.90
30893;DHT22;17595;50.884;4.346;2022-08-03T11:01:18;27.00;99.90
30893;DHT22;17595;50.884;4.346;2022-08-03T11:06:29;27.00;99.90
30893;DHT22;17595;50.884;4.346;2022-08-03T11:11:44;27.10;99.90
30893;DHT22;17595;50.884;4.346;2022-08-03T11:19:05;27.30;99.90
30893;DHT22;17595;50.884;4.346;2022-08-03T11:40:47;27.70;99.90
30893;DHT22;17595;50.884;4.346;2022-08-03T11:46:06;27.80;99.90
30893;DHT22;17595;50.884;4.346;2022-08-03T11:48:36;28.00;99.90
30893;DHT22;17595;50.884;4.346;2022-08-03T11:51:03;28.10;99.90
30893;DHT22;17595;50.884;4.346;2022-08-03T11:53:29;28.00;99.90
30893;DHT22;17595;50.884;4.346;2022-08-03T11:55:58;28.10;99.90
30893;DHT22;17595;50.884;4.346;2022-08-03T11:58:24;28.10;99.90
30893;DHT22;17595;50.884;4.346;2022-08-03T12:00:50;28.10;99.90
30893;DHT22;17595;50.884;4.346;2022-08-03T12:03:18;28.10;99.90
30893;DHT22;17595;50.884;4.346;2022-08-03T12:05:52;28.10;99.90
30893;DHT22;17595;50.884;4.346;2022-08-03T12:08:29;28.20;99.90
30893;DHT22;17595;50.884;4.346;2022-08-03T12:10:56;28.20;99.90
30893;DHT22;17595;50.884;4.346;2022-08-03T12:13:23;28.30;99.90
30893;DHT22;17595;50.884;4.346;2022-08-03T12:15:55;28.40;99.90
30893;DHT22;17595;50.884;4.346;2022-08-03T12:18:21;28.40;99.90
30893;DHT22;17595;50.884;4.346;2022-08-03T12:20:52;28.30;99.90
30893;DHT22;17595;50.884;4.346;2022-08-03T12:23:18;28.30;99.90
30893;DHT22;17595;50.884;4.346;2022-08-03T12:25:45;28.20;99.90
30893;DHT22;17595;50.884;4.346;2022-08-03T12:28:19;28.40;99.90
30893;DHT22;17595;50.884;4.346;2022-08-03T12:30:49;28.50;99.90
30893;DHT22;17595;50.884;4.346;2022-08-03T12:33:21;28.80;99.90
30893;DHT22;17595;50.884;4.346;2022-08-03T12:36:10;28.70;99.90
30893;DHT22;17595;50.884;4.346;2022-08-03T12:38:37;28.70;99.90
30893;DHT22;17595;50.884;4.346;2022-08-03T12:41:06;28.80;99.90
30893;DHT22;17595;50.884;4.346;2022-08-03T12:43:33;29.00;99.90
30893;DHT22;17595;50.884;4.346;2022-08-03T12:46:10;29.00;99.90
30893;DHT22;17595;50.884;4.346;2022-08-03T12:48:36;29.00;99.90
30893;DHT22;17595;50.884;4.346;2022-08-03T12:51:09;28.90;99.90
30893;DHT22;17595;50.884;4.346;2022-08-03T12:53:35;29.00;99.90
30893;DHT22;17595;50.884;4.346;2022-08-03T12:56:02;29.10;99.90
30893;DHT22;17595;50.884;4.346;2022-08-03T12:58:30;28.90;99.90
30893;DHT22;17595;50.884;4.346;2022-08-03T13:00:57;29.00;99.90
30893;DHT22;17595;50.884;4.346;2022-08-03T13:03:23;29.20;99.90
30893;DHT22;17595;50.884;4.346;2022-08-03T13:05:49;29.30;99.60
30893;DHT22;17595;50.884;4.346;2022-08-03T13:08:23;29.40;99.90
30893;DHT22;17595;50.884;4.346;2022-08-03T13:10:49;29.50;99.50
30893;DHT22;17595;50.884;4.346;2022-08-03T13:13:15;29.50;99.10
30893;DHT22;17595;50.884;4.346;2022-08-03T13:15:41;29.80;99.40
30893;DHT22;17595;50.884;4.346;2022-08-03T13:18:06;29.50;98.80
30893;DHT22;17595;50.884;4.346;2022-08-03T13:20:33;29.40;98.30
30893;DHT22;17595;50.884;4.346;2022-08-03T13:22:58;29.40;98.70
30893;DHT22;17595;50.884;4.346;2022-08-03T13:25:24;29.60;99.00
30893;DHT22;17595;50.884;4.346;2022-08-03T13:27:49;29.60;98.40
30893;DHT22;17595;50.884;4.346;2022-08-03T13:30:17;29.80;98.10
30893;DHT22;17595;50.884;4.346;2022-08-03T13:32:42;29.80;98.40
30893;DHT22;17595;50.884;4.346;2022-08-03T13:35:09;29.70;98.60
30893;DHT22;17595;50.884;4.346;2022-08-03T13:37:35;29.70;98.40
30893;DHT22;17595;50.884;4.346;2022-08-03T13:40:03;29.90;98.50
30893;DHT22;17595;50.884;4.346;2022-08-03T13:42:31;30.10;98.10
30893;DHT22;17595;50.884;4.346;2022-08-03T13:44:58;30.20;98.30
30893;DHT22;17595;50.884;4.346;2022-08-03T13:47:24;30.30;97.30
30893;DHT22;17595;50.884;4.346;2022-08-03T13:49:49;30.60;97.70
30893;DHT22;17595;50.884;4.346;2022-08-03T13:52:16;30.70;96.90
30893;DHT22;17595;50.884;4.346;2022-08-03T13:54:42;30.70;96.70
30893;DHT22;17595;50.884;4.346;2022-08-03T13:57:08;30.40;96.80
30893;DHT22;17595;50.884;4.346;2022-08-03T13:59:35;30.20;97.30
30893;DHT22;17595;50.884;4.346;2022-08-03T14:02:01;30.20;97.30
30893;DHT22;17595;50.884;4.346;2022-08-03T14:04:26;30.30;97.30
30893;DHT22;17595;50.884;4.346;2022-08-03T14:06:52;30.40;97.30
30893;DHT22;17595;50.884;4.346;2022-08-03T14:09:17;30.30;97.40
30893;DHT22;17595;50.884;4.346;2022-08-03T14:11:43;30.50;97.50
30893;DHT22;17595;50.884;4.346;2022-08-03T14:14:09;30.60;97.40
30893;DHT22;17595;50.884;4.346;2022-08-03T14:16:35;30.80;96.60
30893;DHT22;17595;50.884;4.346;2022-08-03T14:19:01;30.90;96.60
30893;DHT22;17595;50.884;4.346;2022-08-03T14:21:27;30.70;96.80
30893;DHT22;17595;50.884;4.346;2022-08-03T14:23:52;30.50;96.00
30893;DHT22;17595;50.884;4.346;2022-08-03T14:26:18;30.20;96.30
30893;DHT22;17595;50.884;4.346;2022-08-03T14:28:45;30.10;97.00
30893;DHT22;17595;50.884;4.346;2022-08-03T14:31:11;30.10;97.20
30893;DHT22;17595;50.884;4.346;2022-08-03T14:33:36;30.40;97.50
30893;DHT22;17595;50.884;4.346;2022-08-03T14:36:02;30.60;97.00
30893;DHT22;17595;50.884;4.346;2022-08-03T14:38:28;30.50;96.60
30893;DHT22;17595;50.884;4.346;2022-08-03T14:40:54;30.40;96.60
30893;DHT22;17595;50.884;4.346;2022-08-03T14:43:19;30.10;96.60
30893;DHT22;17595;50.884;4.346;2022-08-03T14:45:49;30.10;96.70
30893;DHT22;17595;50.884;4.346;2022-08-03T14:48:17;30.00;96.30
30893;DHT22;17595;50.884;4.346;2022-08-03T14:50:43;30.00;96.40
30893;DHT22;17595;50.884;4.346;2022-08-03T14:53:08;30.00;96.50
30893;DHT22;17595;50.884;4.346;2022-08-03T14:55:34;30.00;96.30
30893;DHT22;17595;50.884;4.346;2022-08-03T14:58:00;30.00;96.40
30893;DHT22;17595;50.884;4.346;2022-08-03T15:00:34;30.30;96.40
30893;DHT22;17595;50.884;4.346;2022-08-03T15:02:59;30.40;96.80
30893;DHT22;17595;50.884;4.346;2022-08-03T15:05:25;30.20;96.40
30893;DHT22;17595;50.884;4.346;2022-08-03T15:07:50;30.10;96.50
30893;DHT22;17595;50.884;4.346;2022-08-03T15:10:16;30.10;96.60
30893;DHT22;17595;50.884;4.346;2022-08-03T15:12:43;30.20;96.90
30893;DHT22;17595;50.884;4.346;2022-08-03T15:15:08;30.20;96.40
30893;DHT22;17595;50.884;4.346;2022-08-03T15:17:34;30.30;96.50
30893;DHT22;17595;50.884;4.346;2022-08-03T15:20:00;30.30;96.60
30893;DHT22;17595;50.884;4.346;2022-08-03T15:22:25;30.50;96.10
30893;DHT22;17595;50.884;4.346;2022-08-03T15:24:51;30.40;96.00
30893;DHT22;17595;50.884;4.346;2022-08-03T15:27:16;30.30;95.90
30893;DHT22;17595;50.884;4.346;2022-08-03T15:29:42;30.20;95.70
30893;DHT22;17595;50.884;4.346;2022-08-03T15:32:08;30.20;96.00
30893;DHT22;17595;50.884;4.346;2022-08-03T15:34:33;30.20;95.90
30893;DHT22;17595;50.884;4.346;2022-08-03T15:36:59;30.20;96.00
30893;DHT22;17595;50.884;4.346;2022-08-03T15:39:24;30.20;95.90
30893;DHT22;17595;50.884;4.346;2022-08-03T15:41:50;30.20;96.10
30893;DHT22;17595;50.884;4.346;2022-08-03T15:44:19;30.20;95.70
30893;DHT22;17595;50.884;4.346;2022-08-03T15:46:44;30.20;95.60
30893;DHT22;17595;50.884;4.346;2022-08-03T15:49:10;30.20;96.10
30893;DHT22;17595;50.884;4.346;2022-08-03T15:51:36;30.20;95.70
30893;DHT22;17595;50.884;4.346;2022-08-03T15:54:03;30.40;96.00
30893;DHT22;17595;50.884;4.346;2022-08-03T15:56:29;30.60;96.10
30893;DHT22;17595;50.884;4.346;2022-08-03T15:58:54;30.70;96.20
30893;DHT22;17595;50.884;4.346;2022-08-03T16:01:22;30.70;96.10
30893;DHT22;17595;50.884;4.346;2022-08-03T16:03:49;30.70;95.50
30893;DHT22;17595;50.884;4.346;2022-08-03T16:06:15;30.70;96.00
30893;DHT22;17595;50.884;4.346;2022-08-03T16:08:41;30.70;95.90
30893;DHT22;17595;50.884;4.346;2022-08-03T16:11:07;30.70;95.60
30893;DHT22;17595;50.884;4.346;2022-08-03T16:13:32;30.60;95.30
30893;DHT22;17595;50.884;4.346;2022-08-03T16:15:58;30.50;95.40
30893;DHT22;17595;50.884;4.346;2022-08-03T16:18:24;30.50;95.50
30893;DHT22;17595;50.884;4.346;2022-08-03T16:20:49;30.60;95.60
30893;DHT22;17595;50.884;4.346;2022-08-03T16:23:16;30.60;95.60
30893;DHT22;17595;50.884;4.346;2022-08-03T16:25:45;30.60;95.40